Aeroporto :
LOGIN :

Iscrizione | Disclaimer

   EN    FR    IT 

 










Sommario :    VFR   VFR Marginale   IFR   IFR Intensivo   IFR Molto Intensivo
Visibilità : 
Base nubi : 
>= 8 km
>= 3000ft
5 / 8 km
1000 / 3000 ft
1500m / 5 km
500 / 1000 ft
800 / 1500m
200 / 500 ft
< 800m
< 200 ft
Simboli :   Temporali  Nebbia  Neve Forte  Precipitazioni Forti  Vento > 20 kt
SIGMETs :   Varie  Temporali  Ghiacco  Turbolenza  Onda orograficha  Ceneri Vulcaniche






- Altitudine del aeroporto : 1649 ft
- Codice IATA : HHN


EDFH - Frankfurt-Hahn Rhineland-Palatinate

ULTIMO METAR :
  • 230420Z 24005KT 8000 FEW045 05/05 Q1025

METARs OBSOLETI :
  • 230350Z 24005KT 8000 FEW005 SCT040 05/05 Q1025
  • 230320Z 25006KT 8000 FEW005 BKN030 05/05 Q1025
  • 230250Z 24007KT 7000 SCT003 BKN025 05/05 Q1025
  • 230220Z 25005KT 7000 SCT002 BKN020 05/05 Q1025
  • 230150Z 26007KT 7000 SCT002 BKN020 05/05 Q1025

TAF TAF EDFH
Valido dal 23 a 00 ore il 24 a 00 ore UTC


222300Z 2300/2324 27009KT 9999 SCT012
TEMPO 2300/2309 4000 -RA BR BKN012
PROB40
TEMPO 2301/2308 1200 BCFG BKN003
BECMG 2304/2307 23004KT
BECMG 2309/2312 14005KT
BECMG 2321/2323 14010KT



MetMap, La meteo Aeronautica in un colpo d'occhio ! - Copyright ORBIFLY Dicembre 2007 - Disclaimer

ORBIFLY MET'MAP TEAM :

Programmazione e sviluppo : Alexandra Zaïnal
Concezione : Baudouin d'Aumeries
Aiuto per la programmazione : Marc-Olivier Méhu
Supporto tecnico e logistico : Manuel Goepfert
Aiuto per la traduzione : Arnaldo La Scala

Contatto : metmap@orbifly.com




FONTI E CREDITI :

   NOAA